Mill Rose Farm Restricted Landing Area

Jump to: basic info | weather | runways | comments

Related pages: nearby airports | nearby navaids | notams | map

Basic information (top)

Codes: IL68
Location: lon 42.077202, lat -88.159798, elev 850 ft / 259 m msl
Status: small_airport

Weather (top)

Current conditions for Dupage Airport 11nm (20km) SSW (rec'd 2014/12/23 03:52Z):

KDPA 230352Z 13010KT 5SM -RA BR OVC008 06/04 A2960 RMK AO2 SLP029 P0001 T00560044

Airport forecast for Dupage Airport 11nm (20km) SSW (rec'd 2014/12/22 00:36Z):

TAF KDPA 222333Z 2300/2324 11013KT 2SM RA BR OVC007 
     FM230030 12012KT 2SM -DZ BR OVC004 
     FM230700 12010KT 1 1/2SM RA BR OVC004 
     FM231100 19009KT 4SM BR OVC007 
     FM231600 21012KT P6SM OVC015

Runways (top)

N/S: 2,500 x 100 ft (762 x 30 m) — grass — lighted

Latest comments (top)

No comments yet for Mill Rose Farm Restricted Landing Area

More... (top)

See also NOTAMs and nearby airports and navaids, or visit the Mill Rose Farm Restricted Landing Area page at the main OurAirports website..